createdAt,value
2019-03-21T00:01:44.710Z,101060.81
2019-03-21T00:12:04.682Z,101069.55
2019-03-21T00:22:09.871Z,101061.50
2019-03-21T00:32:14.941Z,101046.47
2019-03-21T00:42:19.941Z,101038.25
2019-03-21T00:52:24.927Z,101015.49
2019-03-21T01:02:30.039Z,100998.92
2019-03-21T01:12:35.011Z,101013.88
2019-03-21T01:22:40.011Z,101002.70
2019-03-21T01:32:45.409Z,101023.34
2019-03-21T01:42:50.413Z,101013.79
2019-03-21T01:52:55.310Z,101006.77
2019-03-21T02:03:00.389Z,101004.77
2019-03-21T02:13:05.621Z,100995.09
2019-03-21T02:23:10.581Z,100964.19
2019-03-21T02:33:36.393Z,100975.64
2019-03-21T02:43:41.539Z,100971.36
2019-03-21T02:53:46.450Z,100989.59
2019-03-21T03:03:51.451Z,100997.92
2019-03-21T03:13:56.436Z,100973.92
2019-03-21T03:24:01.432Z,100980.02
2019-03-21T03:34:06.475Z,100970.14
2019-03-21T03:44:12.658Z,100967.03
2019-03-21T03:54:17.746Z,100961.07
2019-03-21T04:04:22.902Z,100940.30
2019-03-21T04:14:27.828Z,100946.53
2019-03-21T04:24:32.725Z,100960.11
2019-03-21T04:34:37.613Z,100961.74
2019-03-21T04:44:44.495Z,100972.67
2019-03-21T04:54:49.251Z,100982.31
2019-03-21T05:04:54.242Z,100979.73
2019-03-21T05:14:59.234Z,100988.98
2019-03-21T05:25:07.605Z,101006.41
2019-03-21T05:35:12.566Z,101010.45
2019-03-21T05:45:21.737Z,101020.47
2019-03-21T05:55:26.918Z,101027.37
2019-03-21T06:05:32.115Z,101028.67
2019-03-21T06:15:40.211Z,101035.70
2019-03-21T06:25:48.098Z,101049.52
2019-03-21T06:35:52.997Z,101049.98
2019-03-21T06:45:57.880Z,101044.16
2019-03-21T06:56:02.780Z,101046.80
2019-03-21T07:06:07.665Z,101059.55
2019-03-21T07:16:12.565Z,101074.83
2019-03-21T07:26:17.550Z,101075.22
2019-03-21T07:36:22.556Z,101082.33
2019-03-21T07:46:27.541Z,101092.48
2019-03-21T07:56:32.427Z,101082.22
2019-03-21T08:06:37.408Z,101097.28
2019-03-21T08:16:42.307Z,101096.62
2019-03-21T08:26:47.210Z,101088.60
2019-03-21T08:36:52.193Z,101086.88
2019-03-21T08:46:57.189Z,101087.48
2019-03-21T08:57:02.079Z,101091.84
2019-03-21T09:07:07.070Z,101098.55
2019-03-21T09:17:12.072Z,101097.68
2019-03-21T09:27:17.412Z,101098.88
2019-03-21T09:37:22.377Z,101099.08
2019-03-21T09:47:27.357Z,101103.34
2019-03-21T09:57:32.362Z,101096.45
2019-03-21T10:07:37.346Z,101112.20
2019-03-21T10:17:42.361Z,101105.19
2019-03-21T10:27:47.430Z,101100.23
2019-03-21T10:37:52.432Z,101107.75
2019-03-21T10:47:57.522Z,101111.78
2019-03-21T10:58:02.404Z,101107.41
2019-03-21T11:08:07.507Z,101102.55
2019-03-21T11:18:12.506Z,101102.95
2019-03-21T11:28:17.853Z,101091.13
2019-03-21T11:38:23.002Z,101069.20
2019-03-21T11:48:27.991Z,101064.16
2019-03-21T11:58:32.979Z,101054.55
2019-03-21T12:08:37.979Z,101047.66
2019-03-21T12:18:42.864Z,101046.23
2019-03-21T12:28:47.870Z,101035.23
2019-03-21T12:38:52.953Z,101026.01
2019-03-21T12:48:59.589Z,101018.84
2019-03-21T12:59:04.952Z,101013.91
2019-03-21T13:09:09.894Z,101002.40
2019-03-21T13:19:14.780Z,100992.39
2019-03-21T13:29:19.656Z,100984.69
2019-03-21T13:39:24.643Z,100985.14
2019-03-21T13:49:29.552Z,100978.47
2019-03-21T13:59:34.540Z,100969.20
2019-03-21T14:09:39.532Z,100960.17
2019-03-21T14:19:44.426Z,100952.92
2019-03-21T14:30:00.537Z,100958.74
2019-03-21T14:39:57.273Z,100948.59
2019-03-21T14:50:02.270Z,100944.05
2019-03-21T15:00:12.921Z,100940.02
2019-03-21T15:10:22.185Z,100929.75
2019-03-21T15:20:27.190Z,100933.41
2019-03-21T15:30:32.184Z,100924.93
2019-03-21T15:40:37.176Z,100928.30
2019-03-21T15:50:42.362Z,100924.15
2019-03-21T16:00:47.476Z,100927.45
2019-03-21T16:10:52.498Z,100928.63
2019-03-21T16:20:57.939Z,100922.34
2019-03-21T16:31:02.962Z,100919.39
2019-03-21T16:41:08.092Z,100917.27
2019-03-21T16:51:13.637Z,100920.50
2019-03-21T17:01:18.944Z,100927.48
2019-03-21T17:11:24.227Z,100927.94
2019-03-21T17:21:29.559Z,100927.81
2019-03-21T17:31:34.730Z,100930.38
2019-03-21T17:41:39.806Z,100944.75
2019-03-21T17:51:46.723Z,100944.75
2019-03-21T18:01:52.371Z,100955.63
2019-03-21T18:11:57.459Z,100955.31
2019-03-21T18:22:02.751Z,100960.17
2019-03-21T18:32:07.935Z,100957.25
2019-03-21T18:42:13.070Z,100956.64
2019-03-21T18:52:19.541Z,100963.04
2019-03-21T19:02:24.943Z,100969.55
2019-03-21T19:12:30.346Z,100964.84
2019-03-21T19:22:35.629Z,100965.97
2019-03-21T19:32:40.851Z,100968.06
2019-03-21T19:42:46.145Z,100973.98
2019-03-21T19:52:51.530Z,100977.66
2019-03-21T20:02:57.024Z,100972.19
2019-03-21T20:13:02.566Z,100967.52
2019-03-21T20:23:07.973Z,100957.59
2019-03-21T20:33:13.719Z,100961.16
2019-03-21T20:43:19.266Z,100948.65
2019-03-21T20:53:25.229Z,100949.44
2019-03-21T21:03:30.551Z,100941.22
2019-03-21T21:13:35.922Z,100943.86
2019-03-21T21:23:41.289Z,100952.61
2019-03-21T21:33:46.396Z,100950.42
2019-03-21T21:43:51.679Z,100940.45
2019-03-21T21:53:56.658Z,100924.31
2019-03-21T22:04:04.932Z,100919.49
2019-03-21T22:14:08.388Z,100925.55
2019-03-21T22:24:13.403Z,100922.77
2019-03-21T22:34:19.139Z,100932.98
2019-03-21T22:44:24.199Z,100954.09
2019-03-21T22:54:29.194Z,100956.69
2019-03-21T23:04:34.178Z,100943.56
2019-03-21T23:14:39.172Z,100957.78
2019-03-21T23:24:44.164Z,100952.22
2019-03-21T23:34:49.263Z,100956.83
2019-03-21T23:44:54.254Z,100955.37
2019-03-21T23:54:59.242Z,100968.00
